sensor_id;sensor_type;location;lat;lon;timestamp;P1;durP1;ratioP1;P2;durP2;ratioP2
66298;SDS011;53098;47.658;8.578;2023-05-07T00:01:37;9.00;;;1.77;;
66298;SDS011;53098;47.658;8.578;2023-05-07T00:04:02;4.13;;;1.60;;
66298;SDS011;53098;47.658;8.578;2023-05-07T00:06:28;4.75;;;1.50;;
66298;SDS011;53098;47.658;8.578;2023-05-07T00:08:53;3.60;;;1.60;;
66298;SDS011;53098;47.658;8.578;2023-05-07T00:11:18;4.23;;;1.63;;
66298;SDS011;53098;47.658;8.578;2023-05-07T00:13:43;3.60;;;1.53;;
66298;SDS011;53098;47.658;8.578;2023-05-07T00:16:09;2.90;;;1.50;;
66298;SDS011;53098;47.658;8.578;2023-05-07T00:18:34;5.17;;;1.33;;
66298;SDS011;53098;47.658;8.578;2023-05-07T00:20:59;4.70;;;1.83;;
66298;SDS011;53098;47.658;8.578;2023-05-07T00:23:25;3.37;;;1.30;;
66298;SDS011;53098;47.658;8.578;2023-05-07T00:25:50;8.05;;;1.38;;
66298;SDS011;53098;47.658;8.578;2023-05-07T00:28:15;4.83;;;1.40;;
66298;SDS011;53098;47.658;8.578;2023-05-07T00:30:40;4.20;;;1.73;;
66298;SDS011;53098;47.658;8.578;2023-05-07T00:33:05;4.07;;;1.60;;
66298;SDS011;53098;47.658;8.578;2023-05-07T00:35:31;3.23;;;1.40;;
66298;SDS011;53098;47.658;8.578;2023-05-07T00:37:57;7.20;;;1.77;;
66298;SDS011;53098;47.658;8.578;2023-05-07T00:40:22;5.80;;;1.50;;
66298;SDS011;53098;47.658;8.578;2023-05-07T00:42:48;2.67;;;1.53;;
66298;SDS011;53098;47.658;8.578;2023-05-07T00:45:13;8.03;;;2.27;;
66298;SDS011;53098;47.658;8.578;2023-05-07T00:47:39;4.20;;;1.70;;
66298;SDS011;53098;47.658;8.578;2023-05-07T00:50:05;4.60;;;1.73;;
66298;SDS011;53098;47.658;8.578;2023-05-07T00:52:30;5.47;;;1.88;;
66298;SDS011;53098;47.658;8.578;2023-05-07T00:54:55;4.70;;;1.70;;
66298;SDS011;53098;47.658;8.578;2023-05-07T00:57:21;7.57;;;2.00;;
66298;SDS011;53098;47.658;8.578;2023-05-07T00:59:46;6.38;;;1.60;;
66298;SDS011;53098;47.658;8.578;2023-05-07T01:02:12;3.92;;;1.42;;
66298;SDS011;53098;47.658;8.578;2023-05-07T01:04:37;6.53;;;1.40;;
66298;SDS011;53098;47.658;8.578;2023-05-07T01:07:02;4.18;;;1.35;;
66298;SDS011;53098;47.658;8.578;2023-05-07T01:09:28;5.20;;;1.88;;
66298;SDS011;53098;47.658;8.578;2023-05-07T01:11:54;3.28;;;1.10;;
66298;SDS011;53098;47.658;8.578;2023-05-07T01:14:20;4.10;;;1.20;;
66298;SDS011;53098;47.658;8.578;2023-05-07T01:16:46;4.30;;;1.40;;
66298;SDS011;53098;47.658;8.578;2023-05-07T01:19:11;3.38;;;1.38;;
66298;SDS011;53098;47.658;8.578;2023-05-07T01:21:37;4.03;;;1.27;;
66298;SDS011;53098;47.658;8.578;2023-05-07T01:24:02;5.40;;;1.40;;
66298;SDS011;53098;47.658;8.578;2023-05-07T01:26:28;2.88;;;1.30;;
66298;SDS011;53098;47.658;8.578;2023-05-07T01:28:54;4.83;;;1.50;;
66298;SDS011;53098;47.658;8.578;2023-05-07T01:31:19;2.67;;;1.17;;
66298;SDS011;53098;47.658;8.578;2023-05-07T01:33:45;5.68;;;1.50;;
66298;SDS011;53098;47.658;8.578;2023-05-07T01:36:11;8.02;;;1.60;;
66298;SDS011;53098;47.658;8.578;2023-05-07T01:38:37;4.00;;;1.58;;
66298;SDS011;53098;47.658;8.578;2023-05-07T01:41:02;4.32;;;1.30;;
66298;SDS011;53098;47.658;8.578;2023-05-07T01:43:28;3.20;;;1.10;;
66298;SDS011;53098;47.658;8.578;2023-05-07T01:45:54;8.18;;;1.20;;
66298;SDS011;53098;47.658;8.578;2023-05-07T01:48:20;5.90;;;1.40;;
66298;SDS011;53098;47.658;8.578;2023-05-07T01:50:45;5.00;;;1.27;;
66298;SDS011;53098;47.658;8.578;2023-05-07T01:53:11;7.53;;;1.95;;
66298;SDS011;53098;47.658;8.578;2023-05-07T01:55:36;6.27;;;1.90;;
66298;SDS011;53098;47.658;8.578;2023-05-07T01:58:01;8.80;;;2.60;;
66298;SDS011;53098;47.658;8.578;2023-05-07T02:00:26;20.43;;;6.00;;
66298;SDS011;53098;47.658;8.578;2023-05-07T02:02:52;14.90;;;4.43;;
66298;SDS011;53098;47.658;8.578;2023-05-07T02:05:17;16.57;;;3.63;;
66298;SDS011;53098;47.658;8.578;2023-05-07T02:07:42;9.05;;;3.13;;
66298;SDS011;53098;47.658;8.578;2023-05-07T02:10:08;4.97;;;1.70;;
66298;SDS011;53098;47.658;8.578;2023-05-07T02:12:33;5.00;;;1.50;;
66298;SDS011;53098;47.658;8.578;2023-05-07T02:14:58;4.77;;;1.20;;
66298;SDS011;53098;47.658;8.578;2023-05-07T02:17:23;3.60;;;1.37;;
66298;SDS011;53098;47.658;8.578;2023-05-07T02:19:49;2.87;;;1.40;;
66298;SDS011;53098;47.658;8.578;2023-05-07T02:22:14;7.03;;;1.50;;
66298;SDS011;53098;47.658;8.578;2023-05-07T02:24:39;4.57;;;1.70;;
66298;SDS011;53098;47.658;8.578;2023-05-07T02:27:04;2.97;;;1.30;;
66298;SDS011;53098;47.658;8.578;2023-05-07T02:29:30;7.77;;;1.60;;
66298;SDS011;53098;47.658;8.578;2023-05-07T02:31:55;4.33;;;1.33;;
66298;SDS011;53098;47.658;8.578;2023-05-07T02:34:20;6.30;;;1.53;;
66298;SDS011;53098;47.658;8.578;2023-05-07T02:36:45;3.17;;;1.50;;
66298;SDS011;53098;47.658;8.578;2023-05-07T02:39:11;3.83;;;1.27;;
66298;SDS011;53098;47.658;8.578;2023-05-07T02:41:37;3.40;;;1.40;;
66298;SDS011;53098;47.658;8.578;2023-05-07T02:44:02;5.70;;;1.97;;
66298;SDS011;53098;47.658;8.578;2023-05-07T02:46:27;5.05;;;1.90;;
66298;SDS011;53098;47.658;8.578;2023-05-07T02:48:53;5.10;;;1.83;;
66298;SDS011;53098;47.658;8.578;2023-05-07T02:51:21;6.80;;;1.93;;
66298;SDS011;53098;47.658;8.578;2023-05-07T02:53:47;8.30;;;2.65;;
66298;SDS011;53098;47.658;8.578;2023-05-07T02:56:12;6.80;;;2.28;;
66298;SDS011;53098;47.658;8.578;2023-05-07T02:58:37;7.47;;;2.40;;
66298;SDS011;53098;47.658;8.578;2023-05-07T03:01:03;4.38;;;1.55;;
66298;SDS011;53098;47.658;8.578;2023-05-07T03:03:28;5.03;;;1.70;;
66298;SDS011;53098;47.658;8.578;2023-05-07T03:05:53;4.00;;;1.67;;
66298;SDS011;53098;47.658;8.578;2023-05-07T03:08:19;5.13;;;1.70;;
66298;SDS011;53098;47.658;8.578;2023-05-07T03:10:44;3.40;;;1.60;;
66298;SDS011;53098;47.658;8.578;2023-05-07T03:13:09;7.50;;;2.10;;
66298;SDS011;53098;47.658;8.578;2023-05-07T03:15:34;6.03;;;1.80;;
66298;SDS011;53098;47.658;8.578;2023-05-07T03:18:00;4.23;;;1.60;;
66298;SDS011;53098;47.658;8.578;2023-05-07T03:20:25;5.43;;;1.53;;
66298;SDS011;53098;47.658;8.578;2023-05-07T03:22:50;8.00;;;1.80;;
66298;SDS011;53098;47.658;8.578;2023-05-07T03:25:16;6.33;;;1.93;;
66298;SDS011;53098;47.658;8.578;2023-05-07T03:27:41;3.30;;;1.50;;
66298;SDS011;53098;47.658;8.578;2023-05-07T03:30:06;8.03;;;1.90;;
66298;SDS011;53098;47.658;8.578;2023-05-07T03:32:32;4.88;;;1.80;;
66298;SDS011;53098;47.658;8.578;2023-05-07T03:34:57;7.43;;;2.20;;
66298;SDS011;53098;47.658;8.578;2023-05-07T03:37:22;14.65;;;4.65;;
66298;SDS011;53098;47.658;8.578;2023-05-07T03:39:48;25.92;;;10.43;;
66298;SDS011;53098;47.658;8.578;2023-05-07T03:42:13;34.40;;;13.73;;
66298;SDS011;53098;47.658;8.578;2023-05-07T03:44:38;31.90;;;14.07;;
66298;SDS011;53098;47.658;8.578;2023-05-07T03:47:04;30.83;;;14.17;;
66298;SDS011;53098;47.658;8.578;2023-05-07T03:49:29;31.27;;;14.40;;
66298;SDS011;53098;47.658;8.578;2023-05-07T03:51:54;26.33;;;12.87;;
66298;SDS011;53098;47.658;8.578;2023-05-07T03:54:20;23.75;;;12.63;;
66298;SDS011;53098;47.658;8.578;2023-05-07T03:56:45;21.23;;;11.27;;
66298;SDS011;53098;47.658;8.578;2023-05-07T03:59:11;8.67;;;3.67;;
66298;SDS011;53098;47.658;8.578;2023-05-07T04:01:37;5.57;;;1.75;;
66298;SDS011;53098;47.658;8.578;2023-05-07T04:04:02;4.37;;;2.20;;
66298;SDS011;53098;47.658;8.578;2023-05-07T04:06:30;2.87;;;1.70;;
66298;SDS011;53098;47.658;8.578;2023-05-07T04:08:55;5.07;;;1.75;;
66298;SDS011;53098;47.658;8.578;2023-05-07T04:11:21;6.57;;;2.03;;
66298;SDS011;53098;47.658;8.578;2023-05-07T04:13:46;7.07;;;2.10;;
66298;SDS011;53098;47.658;8.578;2023-05-07T04:16:11;5.87;;;2.13;;
66298;SDS011;53098;47.658;8.578;2023-05-07T04:18:36;4.47;;;1.90;;
66298;SDS011;53098;47.658;8.578;2023-05-07T04:21:02;4.53;;;1.70;;
66298;SDS011;53098;47.658;8.578;2023-05-07T04:23:27;4.35;;;2.05;;
66298;SDS011;53098;47.658;8.578;2023-05-07T04:25:52;5.03;;;2.37;;
66298;SDS011;53098;47.658;8.578;2023-05-07T04:28:18;4.73;;;1.90;;
66298;SDS011;53098;47.658;8.578;2023-05-07T04:30:43;6.20;;;2.00;;
66298;SDS011;53098;47.658;8.578;2023-05-07T04:33:08;6.43;;;2.10;;
66298;SDS011;53098;47.658;8.578;2023-05-07T04:35:34;4.68;;;1.85;;
66298;SDS011;53098;47.658;8.578;2023-05-07T04:38:00;6.75;;;2.13;;
66298;SDS011;53098;47.658;8.578;2023-05-07T04:40:25;4.20;;;1.67;;
66298;SDS011;53098;47.658;8.578;2023-05-07T04:42:50;5.70;;;1.73;;
66298;SDS011;53098;47.658;8.578;2023-05-07T04:45:15;3.77;;;1.70;;
66298;SDS011;53098;47.658;8.578;2023-05-07T04:47:41;3.90;;;1.80;;
66298;SDS011;53098;47.658;8.578;2023-05-07T04:50:06;4.50;;;1.90;;
66298;SDS011;53098;47.658;8.578;2023-05-07T04:52:32;4.97;;;1.90;;
66298;SDS011;53098;47.658;8.578;2023-05-07T04:54:58;6.53;;;1.80;;
66298;SDS011;53098;47.658;8.578;2023-05-07T04:57:24;5.18;;;2.10;;
66298;SDS011;53098;47.658;8.578;2023-05-07T04:59:49;6.03;;;2.00;;
66298;SDS011;53098;47.658;8.578;2023-05-07T05:02:14;5.43;;;2.20;;
66298;SDS011;53098;47.658;8.578;2023-05-07T05:04:39;3.93;;;1.83;;
66298;SDS011;53098;47.658;8.578;2023-05-07T05:07:05;5.37;;;1.90;;
66298;SDS011;53098;47.658;8.578;2023-05-07T05:09:30;4.83;;;1.83;;
66298;SDS011;53098;47.658;8.578;2023-05-07T05:11:55;4.33;;;1.60;;
66298;SDS011;53098;47.658;8.578;2023-05-07T05:14:21;4.32;;;1.90;;
66298;SDS011;53098;47.658;8.578;2023-05-07T05:16:46;6.57;;;1.83;;
66298;SDS011;53098;47.658;8.578;2023-05-07T05:19:11;4.83;;;1.67;;
66298;SDS011;53098;47.658;8.578;2023-05-07T05:21:36;4.17;;;1.70;;
66298;SDS011;53098;47.658;8.578;2023-05-07T05:24:02;4.70;;;1.70;;
66298;SDS011;53098;47.658;8.578;2023-05-07T05:26:27;5.53;;;1.77;;
66298;SDS011;53098;47.658;8.578;2023-05-07T05:28:52;3.73;;;1.60;;
66298;SDS011;53098;47.658;8.578;2023-05-07T05:31:17;4.93;;;2.50;;
66298;SDS011;53098;47.658;8.578;2023-05-07T05:33:43;4.27;;;1.90;;
66298;SDS011;53098;47.658;8.578;2023-05-07T05:36:11;6.80;;;1.93;;
66298;SDS011;53098;47.658;8.578;2023-05-07T05:38:36;5.72;;;1.80;;
66298;SDS011;53098;47.658;8.578;2023-05-07T05:41:02;4.67;;;1.80;;
66298;SDS011;53098;47.658;8.578;2023-05-07T05:43:27;3.97;;;1.90;;
66298;SDS011;53098;47.658;8.578;2023-05-07T05:45:52;4.97;;;2.10;;
66298;SDS011;53098;47.658;8.578;2023-05-07T05:48:18;3.53;;;1.73;;
66298;SDS011;53098;47.658;8.578;2023-05-07T05:50:43;3.83;;;1.90;;
66298;SDS011;53098;47.658;8.578;2023-05-07T05:53:08;4.80;;;1.98;;
66298;SDS011;53098;47.658;8.578;2023-05-07T05:55:33;9.40;;;1.80;;
66298;SDS011;53098;47.658;8.578;2023-05-07T05:57:59;6.05;;;2.10;;
66298;SDS011;53098;47.658;8.578;2023-05-07T06:00:25;6.95;;;2.88;;
66298;SDS011;53098;47.658;8.578;2023-05-07T06:02:51;10.70;;;3.30;;
66298;SDS011;53098;47.658;8.578;2023-05-07T06:05:16;5.13;;;2.40;;
66298;SDS011;53098;47.658;8.578;2023-05-07T06:07:41;6.03;;;2.50;;
66298;SDS011;53098;47.658;8.578;2023-05-07T06:10:07;4.07;;;1.63;;
66298;SDS011;53098;47.658;8.578;2023-05-07T06:12:32;4.35;;;2.08;;
66298;SDS011;53098;47.658;8.578;2023-05-07T06:14:57;8.10;;;2.00;;
66298;SDS011;53098;47.658;8.578;2023-05-07T06:17:22;4.57;;;2.03;;
66298;SDS011;53098;47.658;8.578;2023-05-07T06:19:48;7.83;;;2.00;;
66298;SDS011;53098;47.658;8.578;2023-05-07T06:22:13;6.73;;;2.33;;
66298;SDS011;53098;47.658;8.578;2023-05-07T06:24:38;6.97;;;2.17;;
66298;SDS011;53098;47.658;8.578;2023-05-07T06:27:03;4.80;;;2.40;;
66298;SDS011;53098;47.658;8.578;2023-05-07T06:29:29;5.83;;;2.53;;
66298;SDS011;53098;47.658;8.578;2023-05-07T06:31:54;8.83;;;2.67;;
66298;SDS011;53098;47.658;8.578;2023-05-07T06:34:19;5.73;;;2.40;;
66298;SDS011;53098;47.658;8.578;2023-05-07T06:36:44;6.03;;;2.30;;
66298;SDS011;53098;47.658;8.578;2023-05-07T06:39:10;5.20;;;2.43;;
66298;SDS011;53098;47.658;8.578;2023-05-07T06:41:35;6.27;;;1.97;;
66298;SDS011;53098;47.658;8.578;2023-05-07T06:44:01;4.45;;;2.03;;
66298;SDS011;53098;47.658;8.578;2023-05-07T06:46:27;3.45;;;1.70;;
66298;SDS011;53098;47.658;8.578;2023-05-07T06:48:52;6.70;;;1.98;;
66298;SDS011;53098;47.658;8.578;2023-05-07T06:51:17;6.78;;;2.33;;
66298;SDS011;53098;47.658;8.578;2023-05-07T06:53:43;8.97;;;2.20;;
66298;SDS011;53098;47.658;8.578;2023-05-07T06:56:08;6.63;;;2.47;;
66298;SDS011;53098;47.658;8.578;2023-05-07T06:58:33;5.60;;;2.30;;
66298;SDS011;53098;47.658;8.578;2023-05-07T07:00:58;5.63;;;2.67;;
66298;SDS011;53098;47.658;8.578;2023-05-07T07:03:24;8.97;;;2.60;;
66298;SDS011;53098;47.658;8.578;2023-05-07T07:05:52;6.23;;;2.23;;
66298;SDS011;53098;47.658;8.578;2023-05-07T07:08:17;5.40;;;2.40;;
66298;SDS011;53098;47.658;8.578;2023-05-07T07:10:43;6.23;;;2.20;;
66298;SDS011;53098;47.658;8.578;2023-05-07T07:13:08;7.87;;;2.60;;
66298;SDS011;53098;47.658;8.578;2023-05-07T07:15:33;4.97;;;2.03;;
66298;SDS011;53098;47.658;8.578;2023-05-07T07:17:58;7.50;;;2.50;;
66298;SDS011;53098;47.658;8.578;2023-05-07T07:20:24;5.17;;;2.10;;
66298;SDS011;53098;47.658;8.578;2023-05-07T07:22:49;4.93;;;2.20;;
66298;SDS011;53098;47.658;8.578;2023-05-07T07:25:14;6.53;;;2.27;;
66298;SDS011;53098;47.658;8.578;2023-05-07T07:27:40;5.70;;;2.00;;
66298;SDS011;53098;47.658;8.578;2023-05-07T07:30:05;7.07;;;2.30;;
66298;SDS011;53098;47.658;8.578;2023-05-07T07:32:31;5.47;;;2.30;;
66298;SDS011;53098;47.658;8.578;2023-05-07T07:34:56;7.63;;;2.50;;
66298;SDS011;53098;47.658;8.578;2023-05-07T07:37:22;5.33;;;2.37;;
66298;SDS011;53098;47.658;8.578;2023-05-07T07:39:47;12.97;;;2.70;;
66298;SDS011;53098;47.658;8.578;2023-05-07T07:42:12;5.97;;;2.15;;
66298;SDS011;53098;47.658;8.578;2023-05-07T07:44:38;6.97;;;2.20;;
66298;SDS011;53098;47.658;8.578;2023-05-07T07:47:03;6.57;;;2.47;;
66298;SDS011;53098;47.658;8.578;2023-05-07T07:49:28;4.90;;;2.50;;
66298;SDS011;53098;47.658;8.578;2023-05-07T07:51:53;4.40;;;2.30;;
66298;SDS011;53098;47.658;8.578;2023-05-07T07:54:19;8.37;;;2.40;;
66298;SDS011;53098;47.658;8.578;2023-05-07T07:56:44;5.27;;;2.00;;
66298;SDS011;53098;47.658;8.578;2023-05-07T07:59:09;7.20;;;2.30;;
66298;SDS011;53098;47.658;8.578;2023-05-07T08:01:34;4.97;;;2.10;;
66298;SDS011;53098;47.658;8.578;2023-05-07T08:04:00;6.70;;;2.13;;
66298;SDS011;53098;47.658;8.578;2023-05-07T08:06:25;8.57;;;2.23;;
66298;SDS011;53098;47.658;8.578;2023-05-07T08:08:50;8.97;;;2.40;;
66298;SDS011;53098;47.658;8.578;2023-05-07T08:11:16;7.22;;;2.42;;
66298;SDS011;53098;47.658;8.578;2023-05-07T08:13:41;7.63;;;2.30;;
66298;SDS011;53098;47.658;8.578;2023-05-07T08:16:07;7.80;;;2.13;;
66298;SDS011;53098;47.658;8.578;2023-05-07T08:18:32;3.95;;;1.98;;
66298;SDS011;53098;47.658;8.578;2023-05-07T08:20:57;6.03;;;2.43;;
66298;SDS011;53098;47.658;8.578;2023-05-07T08:23:23;6.33;;;2.27;;
66298;SDS011;53098;47.658;8.578;2023-05-07T08:25:48;6.40;;;2.30;;
66298;SDS011;53098;47.658;8.578;2023-05-07T08:28:14;4.82;;;2.28;;
66298;SDS011;53098;47.658;8.578;2023-05-07T08:30:39;6.13;;;2.50;;
66298;SDS011;53098;47.658;8.578;2023-05-07T08:33:05;5.22;;;2.75;;
66298;SDS011;53098;47.658;8.578;2023-05-07T08:35:30;7.97;;;3.17;;
66298;SDS011;53098;47.658;8.578;2023-05-07T08:37:55;7.73;;;2.67;;
66298;SDS011;53098;47.658;8.578;2023-05-07T08:40:21;5.63;;;2.43;;
66298;SDS011;53098;47.658;8.578;2023-05-07T08:42:49;6.35;;;2.40;;
66298;SDS011;53098;47.658;8.578;2023-05-07T08:45:16;9.02;;;3.00;;
66298;SDS011;53098;47.658;8.578;2023-05-07T08:47:43;5.90;;;2.35;;
66298;SDS011;53098;47.658;8.578;2023-05-07T08:50:09;7.53;;;2.20;;
66298;SDS011;53098;47.658;8.578;2023-05-07T08:52:34;6.88;;;2.13;;
66298;SDS011;53098;47.658;8.578;2023-05-07T08:55:00;5.97;;;2.70;;
66298;SDS011;53098;47.658;8.578;2023-05-07T08:57:27;5.10;;;2.30;;
66298;SDS011;53098;47.658;8.578;2023-05-07T08:59:52;5.70;;;2.00;;
66298;SDS011;53098;47.658;8.578;2023-05-07T09:02:17;4.67;;;1.90;;
66298;SDS011;53098;47.658;8.578;2023-05-07T09:04:43;6.63;;;2.40;;
66298;SDS011;53098;47.658;8.578;2023-05-07T09:07:08;5.67;;;2.30;;
66298;SDS011;53098;47.658;8.578;2023-05-07T09:09:33;6.00;;;2.53;;
66298;SDS011;53098;47.658;8.578;2023-05-07T09:11:59;4.78;;;2.28;;
66298;SDS011;53098;47.658;8.578;2023-05-07T09:14:24;5.68;;;2.45;;
66298;SDS011;53098;47.658;8.578;2023-05-07T09:16:51;5.97;;;2.13;;
66298;SDS011;53098;47.658;8.578;2023-05-07T09:19:21;5.15;;;2.15;;
66298;SDS011;53098;47.658;8.578;2023-05-07T09:21:46;5.35;;;2.35;;
66298;SDS011;53098;47.658;8.578;2023-05-07T09:24:12;6.67;;;2.30;;
66298;SDS011;53098;47.658;8.578;2023-05-07T09:26:40;5.82;;;2.20;;
66298;SDS011;53098;47.658;8.578;2023-05-07T09:29:05;5.47;;;2.15;;
66298;SDS011;53098;47.658;8.578;2023-05-07T09:31:31;5.60;;;2.40;;
66298;SDS011;53098;47.658;8.578;2023-05-07T09:33:57;6.43;;;2.40;;
66298;SDS011;53098;47.658;8.578;2023-05-07T09:36:22;5.93;;;2.60;;
66298;SDS011;53098;47.658;8.578;2023-05-07T09:38:47;6.00;;;2.30;;
66298;SDS011;53098;47.658;8.578;2023-05-07T09:41:13;6.47;;;2.30;;
66298;SDS011;53098;47.658;8.578;2023-05-07T09:43:39;6.97;;;2.78;;
66298;SDS011;53098;47.658;8.578;2023-05-07T09:46:08;6.97;;;2.42;;
66298;SDS011;53098;47.658;8.578;2023-05-07T09:48:36;7.10;;;2.42;;
66298;SDS011;53098;47.658;8.578;2023-05-07T09:51:02;6.32;;;2.40;;
66298;SDS011;53098;47.658;8.578;2023-05-07T09:53:29;8.18;;;3.03;;
66298;SDS011;53098;47.658;8.578;2023-05-07T09:55:54;7.38;;;2.63;;
66298;SDS011;53098;47.658;8.578;2023-05-07T09:58:21;6.85;;;2.60;;
66298;SDS011;53098;47.658;8.578;2023-05-07T10:00:46;5.07;;;2.40;;
66298;SDS011;53098;47.658;8.578;2023-05-07T10:03:13;5.47;;;2.42;;
66298;SDS011;53098;47.658;8.578;2023-05-07T10:05:39;7.43;;;2.80;;
66298;SDS011;53098;47.658;8.578;2023-05-07T10:08:05;6.70;;;2.40;;
66298;SDS011;53098;47.658;8.578;2023-05-07T10:10:32;5.75;;;2.53;;
66298;SDS011;53098;47.658;8.578;2023-05-07T10:12:58;7.95;;;2.78;;
66298;SDS011;53098;47.658;8.578;2023-05-07T10:15:23;7.40;;;2.60;;
66298;SDS011;53098;47.658;8.578;2023-05-07T10:17:49;6.93;;;2.72;;
66298;SDS011;53098;47.658;8.578;2023-05-07T10:20:16;8.48;;;2.72;;
66298;SDS011;53098;47.658;8.578;2023-05-07T10:22:43;8.67;;;2.80;;
66298;SDS011;53098;47.658;8.578;2023-05-07T10:25:09;6.05;;;2.78;;
66298;SDS011;53098;47.658;8.578;2023-05-07T10:27:39;9.93;;;2.50;;
66298;SDS011;53098;47.658;8.578;2023-05-07T10:32:40;5.07;;;2.33;;
66298;SDS011;53098;47.658;8.578;2023-05-07T10:35:12;7.68;;;2.80;;
66298;SDS011;53098;47.658;8.578;2023-05-07T10:37:39;10.25;;;2.67;;
66298;SDS011;53098;47.658;8.578;2023-05-07T10:40:05;9.20;;;3.00;;
66298;SDS011;53098;47.658;8.578;2023-05-07T10:42:30;4.63;;;2.35;;
66298;SDS011;53098;47.658;8.578;2023-05-07T10:44:56;6.20;;;2.60;;
66298;SDS011;53098;47.658;8.578;2023-05-07T10:47:21;5.40;;;2.15;;
66298;SDS011;53098;47.658;8.578;2023-05-07T10:54:37;5.33;;;2.37;;
66298;SDS011;53098;47.658;8.578;2023-05-07T10:57:32;8.75;;;2.47;;
66298;SDS011;53098;47.658;8.578;2023-05-07T10:59:48;8.57;;;2.88;;
66298;SDS011;53098;47.658;8.578;2023-05-07T11:02:13;6.70;;;2.57;;
66298;SDS011;53098;47.658;8.578;2023-05-07T11:04:38;6.53;;;2.35;;
66298;SDS011;53098;47.658;8.578;2023-05-07T11:10:17;5.18;;;2.45;;
66298;SDS011;53098;47.658;8.578;2023-05-07T11:15:04;7.57;;;2.67;;
66298;SDS011;53098;47.658;8.578;2023-05-07T11:17:30;10.82;;;2.85;;
66298;SDS011;53098;47.658;8.578;2023-05-07T11:19:56;6.50;;;2.10;;
66298;SDS011;53098;47.658;8.578;2023-05-07T11:24:55;7.75;;;2.30;;
66298;SDS011;53098;47.658;8.578;2023-05-07T11:27:24;6.10;;;2.38;;
66298;SDS011;53098;47.658;8.578;2023-05-07T11:29:49;6.00;;;2.45;;
66298;SDS011;53098;47.658;8.578;2023-05-07T11:32:15;7.05;;;2.30;;
66298;SDS011;53098;47.658;8.578;2023-05-07T11:34:40;6.32;;;2.33;;
66298;SDS011;53098;47.658;8.578;2023-05-07T11:37:06;6.85;;;2.47;;
66298;SDS011;53098;47.658;8.578;2023-05-07T11:39:33;7.03;;;2.42;;
66298;SDS011;53098;47.658;8.578;2023-05-07T11:42:01;7.50;;;2.57;;
66298;SDS011;53098;47.658;8.578;2023-05-07T11:44:43;7.45;;;2.30;;
66298;SDS011;53098;47.658;8.578;2023-05-07T11:47:09;6.47;;;2.35;;
66298;SDS011;53098;47.658;8.578;2023-05-07T11:49:35;4.15;;;1.80;;
66298;SDS011;53098;47.658;8.578;2023-05-07T11:52:00;7.23;;;2.30;;
66298;SDS011;53098;47.658;8.578;2023-05-07T11:54:25;5.70;;;2.03;;
66298;SDS011;53098;47.658;8.578;2023-05-07T11:56:50;6.83;;;2.43;;
66298;SDS011;53098;47.658;8.578;2023-05-07T11:59:19;7.57;;;2.10;;
66298;SDS011;53098;47.658;8.578;2023-05-07T12:01:47;6.45;;;2.17;;
66298;SDS011;53098;47.658;8.578;2023-05-07T12:04:12;6.18;;;2.20;;
66298;SDS011;53098;47.658;8.578;2023-05-07T12:06:37;7.70;;;2.83;;
66298;SDS011;53098;47.658;8.578;2023-05-07T12:09:03;4.27;;;1.80;;
66298;SDS011;53098;47.658;8.578;2023-05-07T12:11:29;5.70;;;2.20;;
66298;SDS011;53098;47.658;8.578;2023-05-07T12:13:54;7.60;;;2.10;;
66298;SDS011;53098;47.658;8.578;2023-05-07T12:16:19;5.32;;;1.98;;
66298;SDS011;53098;47.658;8.578;2023-05-07T12:18:45;6.43;;;1.98;;
66298;SDS011;53098;47.658;8.578;2023-05-07T12:21:11;7.18;;;2.08;;
66298;SDS011;53098;47.658;8.578;2023-05-07T12:23:36;7.50;;;2.20;;
66298;SDS011;53098;47.658;8.578;2023-05-07T12:26:02;5.40;;;2.10;;
66298;SDS011;53098;47.658;8.578;2023-05-07T12:28:28;5.80;;;2.13;;
66298;SDS011;53098;47.658;8.578;2023-05-07T12:30:53;10.07;;;2.30;;
66298;SDS011;53098;47.658;8.578;2023-05-07T12:33:19;5.88;;;1.90;;
66298;SDS011;53098;47.658;8.578;2023-05-07T12:35:48;5.35;;;2.15;;
66298;SDS011;53098;47.658;8.578;2023-05-07T12:38:13;4.93;;;1.90;;
66298;SDS011;53098;47.658;8.578;2023-05-07T12:40:40;4.28;;;1.77;;
66298;SDS011;53098;47.658;8.578;2023-05-07T12:43:05;6.85;;;1.73;;
66298;SDS011;53098;47.658;8.578;2023-05-07T12:45:31;6.57;;;2.20;;
66298;SDS011;53098;47.658;8.578;2023-05-07T12:47:56;4.93;;;1.80;;
66298;SDS011;53098;47.658;8.578;2023-05-07T12:50:26;5.25;;;1.67;;
66298;SDS011;53098;47.658;8.578;2023-05-07T12:52:51;5.47;;;1.80;;
66298;SDS011;53098;47.658;8.578;2023-05-07T12:55:16;6.67;;;1.40;;
66298;SDS011;53098;47.658;8.578;2023-05-07T12:57:48;3.03;;;1.15;;
66298;SDS011;53098;47.658;8.578;2023-05-07T13:00:14;4.55;;;1.63;;
66298;SDS011;53098;47.658;8.578;2023-05-07T13:02:40;3.47;;;1.38;;
66298;SDS011;53098;47.658;8.578;2023-05-07T13:05:05;5.22;;;1.08;;
66298;SDS011;53098;47.658;8.578;2023-05-07T13:07:31;3.38;;;1.52;;
66298;SDS011;53098;47.658;8.578;2023-05-07T13:09:56;4.10;;;1.20;;
66298;SDS011;53098;47.658;8.578;2023-05-07T13:12:21;3.40;;;1.40;;
66298;SDS011;53098;47.658;8.578;2023-05-07T13:14:47;4.07;;;1.33;;
66298;SDS011;53098;47.658;8.578;2023-05-07T13:17:12;3.77;;;1.37;;
66298;SDS011;53098;47.658;8.578;2023-05-07T13:19:37;5.50;;;1.40;;
66298;SDS011;53098;47.658;8.578;2023-05-07T13:22:03;3.33;;;1.40;;
66298;SDS011;53098;47.658;8.578;2023-05-07T13:24:28;4.25;;;1.40;;
66298;SDS011;53098;47.658;8.578;2023-05-07T13:26:53;2.30;;;1.02;;
66298;SDS011;53098;47.658;8.578;2023-05-07T13:29:19;3.10;;;1.30;;
66298;SDS011;53098;47.658;8.578;2023-05-07T13:31:44;3.00;;;1.40;;
66298;SDS011;53098;47.658;8.578;2023-05-07T13:34:09;3.87;;;1.40;;
66298;SDS011;53098;47.658;8.578;2023-05-07T13:36:35;4.38;;;1.20;;
66298;SDS011;53098;47.658;8.578;2023-05-07T13:39:00;3.73;;;1.80;;
66298;SDS011;53098;47.658;8.578;2023-05-07T13:41:25;4.07;;;1.30;;
66298;SDS011;53098;47.658;8.578;2023-05-07T13:43:50;2.13;;;1.20;;
66298;SDS011;53098;47.658;8.578;2023-05-07T13:46:16;3.83;;;1.30;;
66298;SDS011;53098;47.658;8.578;2023-05-07T13:48:41;3.77;;;1.40;;
66298;SDS011;53098;47.658;8.578;2023-05-07T13:51:06;3.55;;;1.42;;
66298;SDS011;53098;47.658;8.578;2023-05-07T13:53:32;5.17;;;1.60;;
66298;SDS011;53098;47.658;8.578;2023-05-07T13:55:57;5.50;;;2.00;;
66298;SDS011;53098;47.658;8.578;2023-05-07T13:58:22;10.57;;;2.20;;
66298;SDS011;53098;47.658;8.578;2023-05-07T14:00:47;7.73;;;2.23;;
66298;SDS011;53098;47.658;8.578;2023-05-07T14:03:13;7.80;;;2.20;;
66298;SDS011;53098;47.658;8.578;2023-05-07T14:05:38;5.20;;;1.67;;
66298;SDS011;53098;47.658;8.578;2023-05-07T14:08:03;3.67;;;1.63;;
66298;SDS011;53098;47.658;8.578;2023-05-07T14:10:29;4.13;;;1.63;;
66298;SDS011;53098;47.658;8.578;2023-05-07T14:12:54;5.27;;;2.07;;
66298;SDS011;53098;47.658;8.578;2023-05-07T14:15:19;4.27;;;1.50;;
66298;SDS011;53098;47.658;8.578;2023-05-07T14:17:44;3.72;;;1.48;;
66298;SDS011;53098;47.658;8.578;2023-05-07T14:20:10;5.03;;;1.57;;
66298;SDS011;53098;47.658;8.578;2023-05-07T14:22:36;4.28;;;1.40;;
66298;SDS011;53098;47.658;8.578;2023-05-07T14:25:01;3.22;;;1.50;;
66298;SDS011;53098;47.658;8.578;2023-05-07T14:27:26;3.58;;;1.30;;
66298;SDS011;53098;47.658;8.578;2023-05-07T14:29:52;5.33;;;1.40;;
66298;SDS011;53098;47.658;8.578;2023-05-07T14:32:17;3.93;;;1.53;;
66298;SDS011;53098;47.658;8.578;2023-05-07T14:34:43;4.50;;;1.33;;
66298;SDS011;53098;47.658;8.578;2023-05-07T14:37:08;2.23;;;1.10;;
66298;SDS011;53098;47.658;8.578;2023-05-07T14:39:33;5.53;;;1.33;;
66298;SDS011;53098;47.658;8.578;2023-05-07T14:41:58;2.90;;;1.20;;
66298;SDS011;53098;47.658;8.578;2023-05-07T14:44:24;3.43;;;1.13;;
66298;SDS011;53098;47.658;8.578;2023-05-07T14:46:49;2.33;;;1.20;;
66298;SDS011;53098;47.658;8.578;2023-05-07T14:49:16;4.78;;;1.13;;
66298;SDS011;53098;47.658;8.578;2023-05-07T14:51:45;3.17;;;1.10;;